Ho Chi Minh City, Vietnam
Current Conditions -  °F | °C
As of 4:00 PM on Friday 19 Dec 2014 (Local Time) from VVTS Reporting Station
Broken Clouds Broken Clouds  
Wind Chill: 86°   Ceiling: 1700
Heat Index: 90°   Visibility: 6mi
Dew Point: 70°   Wind: 9mph
Humidity: 58%   Direction: 270°W
Pressure: 29.83"   Gusts: NA
Location:  10.78°N, 106.69°E
Report Text: VVTS 190900Z 27008KT 260V330 9999 BKN017 30/21 Q1010 NOSIG
Loading
Personal Weather Stations






























Interactive Weather Map New forecast layout! Learn more

10-Day Weather Forecast

Advertisements
Track Severe Weather on mobile